Time;durP1;ratioP1;P1;durP2;ratioP2;P2;SDS_P1;SDS_P2;PMS_P1;PMS_P2;Temp;Humidity;BMP_temperature;BMP_pressure;BME280_temperature;BME280_humidity;BME280_pressure;Samples;Min_cycle;Max_cycle;Signal;HPM_P1;HPM_P2
2021/01/23 00:00:13;;;;;;;6.75;2.75;;;0.70;95.50;;;4.79;76.21;99727.78;5033017;27;97413;-71
2021/01/23 00:02:40;;;;;;;13.00;4.22;;;0.70;95.50;;;4.83;76.29;99722.69;5038979;27;97441;-71
2021/01/23 00:05:09;;;;;;;3.88;2.42;;;0.70;95.60;;;4.79;76.21;99733.06;5025894;27;97351;-71
2021/01/23 00:07:37;;;;;;;3.22;1.35;;;0.70;95.60;;;4.82;76.57;99732.53;5033361;27;97218;-72
2021/01/23 00:10:08;;;;;;;2.22;2.05;;;0.70;95.70;;;4.87;76.57;99727.16;5037847;27;96874;-72
2021/01/23 00:12:36;;;;;;;3.13;2.85;;;0.70;95.70;;;4.92;76.34;99726.25;5036702;27;96797;-72
2021/01/23 00:15:06;;;;;;;7.85;2.10;;;0.70;95.70;;;4.93;76.30;99731.28;5044078;27;97852;-72
2021/01/23 00:17:35;;;;;;;7.03;1.30;;;0.70;95.70;;;4.97;76.26;99726.97;5049428;27;96912;-72
2021/01/23 00:20:06;;;;;;;1.50;1.40;;;0.70;95.70;;;4.94;75.76;99724.09;5052455;27;96781;-72
2021/01/23 00:22:35;;;;;;;6.97;1.75;;;0.80;95.70;;;4.88;75.57;99720.75;5047358;27;97653;-72
2021/01/23 00:25:07;;;;;;;2.83;2.15;;;0.70;95.70;;;4.95;75.45;99713.22;5038027;27;98026;-72
2021/01/23 00:27:35;;;;;;;2.58;1.38;;;0.70;95.70;;;4.95;75.23;99721.16;5037149;27;96623;-72
2021/01/23 00:30:07;;;;;;;6.32;2.08;;;0.70;95.70;;;4.97;75.25;99716.34;5039727;27;96829;-72
2021/01/23 00:32:36;;;;;;;7.57;1.88;;;0.70;95.70;;;4.98;75.66;99711.84;5038957;27;97345;-72
2021/01/23 00:35:06;;;;;;;2.63;1.92;;;0.70;95.70;;;4.87;75.50;99713.88;5034371;27;96757;-72
2021/01/23 00:37:35;;;;;;;14.70;3.55;;;0.70;95.70;;;4.83;76.44;99710.22;5036406;27;96681;-72
2021/01/23 00:40:07;;;;;;;1.13;1.10;;;0.70;95.70;;;4.84;76.22;99705.69;5040815;27;97154;-72
2021/01/23 00:42:35;;;;;;;4.65;3.55;;;0.70;95.80;;;4.81;76.31;99707.06;5041545;27;98042;-72
2021/01/23 00:45:06;;;;;;;17.83;2.58;;;0.70;95.80;;;4.79;75.99;99697.81;5043975;27;98623;-72
2021/01/23 00:47:33;;;;;;;1.70;1.60;;;0.70;95.70;;;4.78;76.47;99702.31;5039914;27;96802;-72
2021/01/23 00:50:08;;;;;;;1.55;1.45;;;0.60;95.70;;;4.79;76.37;99705.78;5043083;27;96785;-72
2021/01/23 00:52:37;;;;;;;2.65;2.33;;;0.70;95.80;;;4.81;76.44;99701.75;5024952;27;99174;-72
2021/01/23 00:55:07;;;;;;;2.70;1.55;;;0.70;95.80;;;4.81;76.38;99698.31;5046839;27;97890;-72
2021/01/23 00:57:39;;;;;;;9.45;3.03;;;0.70;95.80;;;4.83;76.62;99694.31;5021403;27;96840;-72
2021/01/23 01:00:12;;;;;;;1.13;1.05;;;0.70;95.80;;;4.81;76.50;99693.00;5048078;27;96767;-72
2021/01/23 01:02:42;;;;;;;;;;;0.70;95.80;;;4.76;77.02;99696.50;5039752;27;96886;-72
2021/01/23 01:05:20;;;;;;;2.92;1.55;;;0.70;95.80;;;4.73;76.84;99693.66;5041471;27;97779;-72
2021/01/23 01:07:48;;;;;;;2.30;2.05;;;0.70;95.80;;;4.68;76.97;99691.88;5056043;27;96863;-72
2021/01/23 01:10:16;;;;;;;1.98;1.85;;;0.70;95.80;;;4.67;76.83;99686.88;5041122;27;97170;-72
2021/01/23 01:12:44;;;;;;;1.48;1.33;;;0.70;95.80;;;4.60;76.96;99687.22;5041520;27;96886;-72
2021/01/23 01:15:13;;;;;;;23.20;2.28;;;0.70;95.80;;;4.55;77.20;99688.38;5041669;27;97788;-72
2021/01/23 01:17:41;;;;;;;8.95;2.97;;;0.70;95.80;;;4.60;77.38;99684.56;5038914;27;96751;-72
2021/01/23 01:20:11;;;;;;;5.10;1.05;;;0.70;95.80;;;4.65;77.02;99686.34;5040139;27;96869;-72
2021/01/23 01:22:40;;;;;;;6.45;1.88;;;0.60;95.80;;;4.61;77.09;99680.84;5039851;27;98104;-72
2021/01/23 01:25:09;;;;;;;2.03;1.60;;;0.60;95.80;;;4.65;77.18;99687.13;5040637;27;96745;-72
2021/01/23 01:27:37;;;;;;;3.92;1.80;;;0.60;95.80;;;4.57;77.73;99693.09;5042260;27;97099;-72
2021/01/23 01:30:07;;;;;;;3.95;3.03;;;0.70;95.90;;;4.65;77.38;99695.09;5058856;27;96886;-72
2021/01/23 01:32:35;;;;;;;1.65;1.55;;;0.70;95.90;;;4.69;77.34;99692.66;5039251;27;96850;-72
2021/01/23 01:35:07;;;;;;;2.22;1.58;;;0.70;95.90;;;4.71;76.98;99688.63;5042240;27;97710;-73
2021/01/23 01:37:36;;;;;;;1.95;1.40;;;0.70;95.90;;;4.74;77.09;99696.00;5033813;27;96810;-72
2021/01/23 01:40:10;;;;;;;1.48;1.40;;;0.70;95.90;;;4.73;77.02;99699.75;5040444;27;96798;-72
2021/01/23 01:42:37;;;;;;;1.15;1.02;;;0.70;95.90;;;4.75;77.18;99704.78;5040076;27;97815;-72
2021/01/23 01:45:07;;;;;;;1.48;1.38;;;0.70;95.90;;;4.71;77.09;99699.25;5040205;27;96746;-72
2021/01/23 01:47:35;;;;;;;4.28;1.63;;;0.70;95.90;;;4.74;77.61;99709.28;5024416;27;96766;-72
2021/01/23 01:50:06;;;;;;;3.30;1.58;;;0.70;96.00;;;4.77;76.96;99703.41;5039011;27;96994;-72
2021/01/23 01:52:34;;;;;;;2.28;1.20;;;0.70;96.00;;;4.78;77.48;99699.66;5038807;27;98021;-72
2021/01/23 01:55:10;;;;;;;1.33;1.02;;;0.80;96.00;;;4.79;77.69;99693.28;5022228;27;97282;-72
2021/01/23 01:57:38;;;;;;;10.18;3.95;;;0.80;96.00;;;4.85;76.92;99696.66;5046257;27;96790;-72
2021/01/23 02:00:10;;;;;;;2.90;2.40;;;0.80;96.00;;;4.87;76.69;99694.50;5041509;27;96869;-72
2021/01/23 02:03:08;;;;;;;2.63;1.30;;;0.80;96.00;;;4.84;76.41;99692.44;5036384;27;98041;-72
2021/01/23 02:05:50;;;;;;;7.25;4.38;;;0.70;95.90;;;4.85;76.34;99692.16;5027023;27;97659;-71
2021/01/23 02:08:37;;;;;;;1.70;1.13;;;0.70;95.90;;;4.86;76.28;99696.38;5029666;27;96686;-72
2021/01/23 02:11:31;;;;;;;2.33;1.70;;;0.70;95.90;;;4.88;76.40;99694.22;5055043;27;96721;-72
2021/01/23 02:14:14;;;;;;;2.97;1.70;;;0.70;95.90;;;4.89;76.37;99692.34;5038449;27;97886;-72
2021/01/23 02:16:48;;;;;;;3.47;2.13;;;0.70;95.90;;;4.88;76.02;99690.75;5047262;27;97926;-72
2021/01/23 02:19:53;;;;;;;1.80;1.70;;;0.70;95.90;;;4.89;76.36;99695.78;5020270;27;96748;-72
2021/01/23 02:23:10;;;;;;;2.33;0.98;;;0.70;95.90;;;4.90;75.99;99686.75;5038336;27;96836;-72
2021/01/23 02:25:59;;;;;;;2.75;1.65;;;0.70;95.90;;;4.95;76.10;99688.53;5038842;27;97768;-72
2021/01/23 02:29:04;;;;;;;9.30;2.05;;;0.70;95.90;;;5.01;76.47;99682.06;5040308;27;96725;-72
2021/01/23 02:31:38;;;;;;;1.02;0.90;;;0.70;96.00;;;5.00;76.10;99675.97;5048466;27;97582;-72
2021/01/23 02:34:11;;;;;;;2.28;1.30;;;0.70;96.00;;;5.00;76.02;99675.97;5033739;27;96894;-72
2021/01/23 02:36:42;;;;;;;2.00;1.80;;;0.70;96.00;;;5.02;75.95;99673.03;5046615;27;97835;-72
2021/01/23 02:39:12;;;;;;;2.22;1.58;;;0.80;96.00;;;5.05;76.15;99680.41;5042551;27;97696;-72
2021/01/23 02:41:40;;;;;;;1.75;1.65;;;0.80;96.00;;;5.01;75.84;99674.88;5040598;27;97312;-72
2021/01/23 02:44:07;;;;;;;2.53;1.92;;;0.80;96.00;;;5.05;75.78;99670.56;5039553;27;96976;-72
2021/01/23 02:46:36;;;;;;;0.68;0.57;;;0.70;95.90;;;5.02;76.31;99679.13;5047613;27;97252;-72
2021/01/23 02:49:07;;;;;;;2.10;2.00;;;0.70;95.90;;;5.03;76.12;99671.97;5054014;27;96797;-72
2021/01/23 02:51:43;;;;;;;0.90;0.90;;;0.80;96.00;;;5.05;76.01;99673.22;5056478;27;96801;-72
2021/01/23 02:54:21;;;;;;;4.45;1.98;;;0.80;96.00;;;5.06;76.09;99674.78;5038658;27;96830;-72
2021/01/23 02:56:50;;;;;;;27.10;2.28;;;0.80;96.00;;;5.06;76.07;99671.38;5036839;27;96852;-72
2021/01/23 02:59:23;;;;;;;1.05;1.00;;;0.70;95.90;;;5.11;76.00;99672.09;5040266;27;97179;-72
2021/01/23 03:01:54;;;;;;;3.03;2.17;;;0.80;96.00;;;5.19;75.97;99673.25;5035708;27;97041;-73
2021/01/23 03:04:26;;;;;;;2.47;2.17;;;0.80;96.00;;;5.24;76.64;99675.81;5044718;27;97165;-71
2021/01/23 03:06:56;;;;;;;2.38;2.17;;;0.80;96.00;;;5.28;76.70;99669.66;5037893;27;97879;-71
2021/01/23 03:09:25;;;;;;;2.13;1.10;;;0.90;96.10;;;5.36;76.44;99671.63;5040780;27;97001;-71
2021/01/23 03:11:54;;;;;;;17.45;1.92;;;0.90;96.10;;;5.31;76.97;99677.03;5039979;27;96814;-71
2021/01/23 03:14:21;;;;;;;2.22;1.98;;;0.90;96.10;;;5.34;76.66;99670.34;5037591;27;97145;-71
2021/01/23 03:16:52;;;;;;;1.20;1.10;;;1.00;96.10;;;5.33;76.81;99664.25;5044882;27;97972;-71
2021/01/23 03:19:22;;;;;;;21.00;3.92;;;1.00;96.10;;;5.36;76.37;99662.88;5037351;27;97742;-71
2021/01/23 03:21:52;;;;;;;1.02;1.00;;;1.00;96.10;;;5.32;76.55;99651.28;5040706;27;96742;-71
2021/01/23 03:24:21;;;;;;;1.85;1.75;;;1.10;96.10;;;5.29;75.85;99662.47;5041361;27;97549;-71
2021/01/23 03:26:50;;;;;;;7.47;2.72;;;1.10;96.10;;;5.24;76.34;99655.38;5041698;27;97105;-70
2021/01/23 03:29:20;;;;;;;3.50;1.95;;;1.10;96.10;;;5.25;76.28;99654.31;5028029;27;97939;-73
2021/01/23 03:31:50;;;;;;;3.40;1.85;;;1.00;96.10;;;5.29;76.31;99657.94;5039079;27;97225;-72
2021/01/23 03:34:19;;;;;;;1.65;1.55;;;1.10;96.10;;;5.29;76.22;99657.94;5059235;27;96723;-72
2021/01/23 03:36:46;;;;;;;1.52;1.38;;;1.00;96.10;;;5.24;75.84;99654.56;5038868;27;97892;-72
2021/01/23 03:39:14;;;;;;;2.05;1.70;;;1.00;96.10;;;5.21;76.15;99658.63;5044971;27;96839;-72
2021/01/23 03:41:42;;;;;;;1.27;0.90;;;1.00;96.00;;;5.20;76.17;99661.56;5032310;27;97289;-72
2021/01/23 03:44:10;;;;;;;1.60;1.23;;;1.00;96.30;;;5.15;76.13;99659.00;5032879;27;96676;-72
2021/01/23 03:46:37;;;;;;;1.52;1.42;;;1.00;96.00;;;5.07;76.78;99651.72;5036626;27;97879;-72
2021/01/23 03:49:05;;;;;;;1.85;1.75;;;1.00;96.00;;;5.04;76.81;99654.94;5036878;27;97802;-72
2021/01/23 03:51:34;;;;;;;1.45;1.35;;;1.00;96.00;;;5.05;76.43;99651.22;5040964;27;96782;-72
2021/01/23 03:54:04;;;;;;;3.47;1.92;;;1.00;96.00;;;5.07;76.63;99649.81;5037441;27;96596;-72
2021/01/23 03:56:32;;;;;;;1.88;1.67;;;1.00;96.00;;;5.06;76.47;99653.56;5053987;27;97812;-72
2021/01/23 03:58:59;;;;;;;1.73;1.63;;;0.90;96.00;;;5.10;76.47;99646.63;5037502;27;97810;-72
2021/01/23 04:01:30;;;;;;;2.65;2.42;;;1.00;96.00;;;5.09;76.61;99639.69;5037199;27;97250;-72
2021/01/23 04:03:58;;;;;;;5.20;1.13;;;0.90;96.00;;;5.12;76.50;99633.84;5039895;27;96784;-72
2021/01/23 04:06:25;;;;;;;5.47;2.47;;;1.00;96.00;;;5.20;76.85;99627.84;5052056;27;97272;-72
2021/01/23 04:08:54;;;;;;;2.17;1.98;;;1.00;96.10;;;5.22;76.43;99623.03;5034604;27;97696;-72
2021/01/23 04:11:22;;;;;;;4.22;1.40;;;1.00;96.30;;;5.20;76.34;99619.88;5038748;27;97534;-72
2021/01/23 04:13:49;;;;;;;4.03;1.98;;;1.00;96.00;;;5.24;76.98;99618.22;5039444;27;96786;-72
2021/01/23 04:16:17;;;;;;;1.42;1.33;;;1.00;96.00;;;5.23;76.74;99611.31;5037574;27;97383;-72
2021/01/23 04:18:46;;;;;;;5.20;2.92;;;1.00;96.10;;;5.26;76.32;99604.66;5061970;27;99190;-72
2021/01/23 04:21:13;;;;;;;3.22;2.83;;;1.00;96.10;;;5.29;76.43;99599.53;5055881;27;96783;-72
2021/01/23 04:23:41;;;;;;;2.67;1.88;;;1.10;96.40;;;5.28;76.92;99592.63;5042968;27;96749;-72
2021/01/23 04:26:09;;;;;;;2.30;1.48;;;1.10;96.10;;;5.35;76.50;99595.69;5042180;27;97972;-72
2021/01/23 04:28:37;;;;;;;7.28;2.42;;;1.10;96.20;;;5.35;76.92;99595.69;5046880;27;97905;-72
2021/01/23 04:31:05;;;;;;;2.20;2.05;;;1.10;96.20;;;5.43;76.83;99589.69;5031778;27;96797;-72
2021/01/23 04:33:34;;;;;;;2.88;2.30;;;1.10;96.20;;;5.45;76.42;99597.34;5039727;27;96934;-72
2021/01/23 04:36:05;;;;;;;9.38;2.17;;;1.20;96.20;;;5.48;75.90;99594.09;5049843;27;97768;-72
2021/01/23 04:38:34;;;;;;;1.75;1.25;;;1.20;96.20;;;5.50;76.02;99582.13;5040378;27;97791;-72
2021/01/23 04:41:03;;;;;;;0.68;0.68;;;1.20;96.10;;;5.52;76.42;99581.81;5046274;27;96849;-72
2021/01/23 04:43:32;;;;;;;6.28;2.42;;;1.20;96.10;;;5.54;76.35;99580.44;5038567;27;96713;-72
2021/01/23 04:45:59;;;;;;;1.25;1.20;;;1.20;96.40;;;5.59;76.88;99580.34;5039496;27;97026;-72
2021/01/23 04:48:30;;;;;;;2.17;1.85;;;1.20;96.20;;;5.64;76.47;99590.84;5042638;27;96773;-72
2021/01/23 04:50:59;;;;;;;1.98;1.38;;;1.30;96.40;;;5.67;76.79;99589.47;5037598;27;96904;-72
2021/01/23 04:53:26;;;;;;;0.93;0.93;;;1.30;96.20;;;5.68;76.58;99591.81;5050588;27;97569;-72
2021/01/23 04:55:55;;;;;;;1.55;1.45;;;1.30;96.20;;;5.72;76.61;99584.88;5039689;27;97795;-72
2021/01/23 04:58:22;;;;;;;2.47;2.30;;;1.40;96.20;;;5.78;76.88;99583.69;5038401;27;96839;-72
2021/01/23 05:00:51;;;;;;;3.50;1.23;;;1.40;96.20;;;5.78;77.60;99583.69;5033013;27;96790;-72
2021/01/23 05:03:19;;;;;;;2.15;1.95;;;1.50;96.20;;;5.86;77.63;99585.66;5041597;27;96723;-72
2021/01/23 05:06:05;;;;;;;1.55;1.25;;;1.50;96.20;;;5.90;77.08;99583.97;5038676;27;97240;-72
2021/01/23 05:08:37;;;;;;;13.20;2.67;;;1.50;96.20;;;5.95;77.55;99580.41;5043037;27;98483;-72
2021/01/23 05:11:06;;;;;;;0.98;0.98;;;1.50;96.20;;;5.99;76.99;99584.03;5040215;27;96784;-72
2021/01/23 05:13:34;;;;;;;1.17;1.05;;;1.60;96.20;;;6.03;76.95;99580.50;5038220;27;97461;-72
2021/01/23 05:16:27;;;;;;;1.58;1.48;;;1.60;96.20;;;6.05;76.65;99585.50;5037036;27;96845;-72
2021/01/23 05:18:57;;;;;;;1.63;1.52;;;1.70;96.20;;;6.05;77.19;99574.88;5037551;27;96975;-72
2021/01/23 05:21:25;;;;;;;1.70;1.60;;;1.70;96.20;;;6.08;76.76;99584.91;5045021;27;96848;-72
2021/01/23 05:24:09;;;;;;;3.05;2.50;;;1.70;96.20;;;6.13;77.08;99582.91;5049584;27;96670;-72
2021/01/23 05:26:39;;;;;;;2.45;2.25;;;1.70;96.20;;;6.20;77.15;99576.13;5045569;27;97807;-72
2021/01/23 05:29:10;;;;;;;1.88;1.40;;;1.80;96.20;;;6.25;77.32;99575.19;5044606;27;98072;-72
2021/01/23 05:31:40;;;;;;;2.15;1.58;;;1.80;96.30;;;6.30;77.02;99572.41;5040835;27;96979;-72
2021/01/23 05:34:31;;;;;;;1.25;1.15;;;1.80;96.30;;;6.38;77.66;99566.38;5059518;27;96730;-72
2021/01/23 05:37:00;;;;;;;2.08;0.95;;;1.90;96.30;;;6.43;77.19;99563.59;5042083;27;98871;-72
2021/01/23 05:39:48;;;;;;;1.38;1.27;;;2.00;96.30;;;6.51;77.18;99554.88;5046962;27;97170;-72
2021/01/23 05:42:18;;;;;;;1.55;1.13;;;2.00;96.30;;;6.55;76.76;99550.53;5040263;27;97404;-72
2021/01/23 05:45:10;;;;;;;3.60;1.92;;;2.00;96.30;;;6.61;76.97;99546.69;5029436;27;97556;-72
2021/01/23 05:47:41;;;;;;;3.10;2.20;;;2.10;96.30;;;6.63;77.01;99539.94;5041974;27;97823;-72
2021/01/23 05:50:10;;;;;;;2.10;1.95;;;2.10;96.30;;;6.59;77.22;99546.97;5038249;27;98902;-72
2021/01/23 05:52:38;;;;;;;3.53;0.88;;;2.10;96.30;;;6.57;77.14;99537.69;5040543;27;96856;-72
2021/01/23 05:55:08;;;;;;;5.47;1.38;;;2.10;96.30;;;6.58;77.35;99550.72;5041757;27;97270;-72
2021/01/23 05:57:37;;;;;;;2.33;1.35;;;2.20;96.40;;;6.72;76.28;99540.75;5040239;27;98457;-72
2021/01/23 06:00:08;;;;;;;10.32;2.83;;;2.20;96.40;;;6.70;77.16;99544.84;5041584;27;97708;-72
2021/01/23 06:02:38;;;;;;;4.13;1.67;;;2.20;96.40;;;6.76;76.76;99548.94;5043926;27;96800;-72
2021/01/23 06:05:14;;;;;;;2.67;1.33;;;2.20;96.40;;;6.77;76.64;99550.50;5053005;27;96942;-72
2021/01/23 06:07:48;;;;;;;0.93;0.93;;;2.20;96.40;;;6.72;76.84;99546.09;5047353;27;96831;-71
2021/01/23 06:10:49;;;;;;;2.28;1.55;;;2.30;96.40;;;6.71;77.22;99546.41;5048446;27;96879;-72
2021/01/23 06:13:42;;;;;;;2.47;1.98;;;2.30;96.50;;;6.74;77.63;99551.13;5040154;27;96817;-72
2021/01/23 06:16:40;;;;;;;22.98;2.28;;;2.30;96.50;;;6.78;77.27;99554.75;5051656;27;96787;-72
2021/01/23 06:19:41;;;;;;;2.40;1.95;;;2.40;96.50;;;6.85;77.13;99558.53;5041174;27;96758;-72
2021/01/23 06:22:13;;;;;;;3.13;2.40;;;2.40;96.50;;;6.82;76.90;99559.16;5044762;27;96752;-72
2021/01/23 06:24:56;;;;;;;3.72;1.58;;;2.40;96.50;;;6.84;77.11;99556.19;5037250;27;96835;-72
2021/01/23 06:27:48;;;;;;;2.45;2.10;;;2.50;96.50;;;6.87;78.02;99551.03;5044517;27;96821;-72
2021/01/23 06:30:30;;;;;;;0.93;0.88;;;2.50;96.50;;;7.08;76.93;99559.28;5035777;27;97920;-72
2021/01/23 06:32:58;;;;;;;0.98;0.95;;;2.50;96.50;;;7.09;77.26;99563.50;5037312;27;98315;-72
2021/01/23 06:35:26;;;;;;;2.95;1.92;;;2.60;96.50;;;7.20;77.17;99570.13;5039144;27;96611;-72
2021/01/23 06:38:13;;;;;;;2.63;2.42;;;2.60;96.60;;;7.21;76.97;99567.16;5035635;27;97913;-72
2021/01/23 06:40:41;;;;;;;3.13;2.13;;;2.60;96.50;;;7.18;76.94;99570.44;5041079;27;99310;-72
2021/01/23 06:43:08;;;;;;;3.13;2.42;;;2.70;96.60;;;7.20;77.08;99554.94;5031711;27;97864;-72
2021/01/23 06:45:38;;;;;;;1.23;0.98;;;2.70;96.60;;;7.24;76.79;99552.47;5044768;27;96758;-72
2021/01/23 06:48:09;;;;;;;2.75;1.65;;;2.70;96.60;;;7.21;77.08;99566.41;5048041;27;96897;-72
2021/01/23 06:50:40;;;;;;;1.70;1.48;;;2.70;96.50;;;7.10;76.64;99565.88;5041513;27;97733;-72
2021/01/23 06:53:21;;;;;;;5.63;2.80;;;2.70;96.50;;;7.07;76.75;99561.16;5041815;27;97673;-72
2021/01/23 06:55:52;;;;;;;2.20;1.67;;;2.70;96.50;;;7.08;77.12;99557.41;5041896;27;96812;-72
2021/01/23 06:58:24;;;;;;;2.13;1.92;;;2.70;96.50;;;7.11;77.44;99561.31;5042821;27;97293;-72
2021/01/23 07:00:55;;;;;;;4.05;3.17;;;2.70;96.60;;;7.09;77.03;99558.19;5041692;27;97434;-72
2021/01/23 07:03:26;;;;;;;1.52;1.38;;;2.70;96.60;;;7.15;77.34;99559.63;5036071;27;97731;-72
2021/01/23 07:05:59;;;;;;;1.73;1.63;;;2.70;96.50;;;7.17;76.87;99565.41;5036231;27;96791;-72
2021/01/23 07:08:36;;;;;;;3.10;1.15;;;2.80;96.60;;;7.26;77.16;99564.34;5041151;27;96836;-72
2021/01/23 07:11:14;;;;;;;1.45;1.35;;;2.70;96.60;;;7.31;77.59;99569.53;5033175;27;98073;-72
2021/01/23 07:14:04;;;;;;;5.00;2.92;;;2.80;96.60;;;7.33;76.79;99574.59;5040765;27;96819;-72
2021/01/23 07:16:35;;;;;;;0.88;0.88;;;2.80;96.60;;;7.28;76.62;99578.16;5040039;27;97230;-72
2021/01/23 07:19:08;;;;;;;6.03;1.57;;;2.80;96.60;;;7.32;76.40;99565.03;5036681;27;96831;-72
2021/01/23 07:21:41;;;;;;;1.02;1.00;;;2.80;96.60;;;7.28;77.11;99566.72;5038311;27;98444;-72
2021/01/23 07:24:10;;;;;;;2.22;2.03;;;2.80;96.60;;;7.33;77.32;99574.59;5054769;27;97870;-72
2021/01/23 07:26:39;;;;;;;3.05;1.30;;;2.80;96.60;;;7.39;76.71;99574.13;5044672;27;96602;-72
2021/01/23 07:29:10;;;;;;;2.03;0.98;;;2.80;96.60;;;7.36;77.40;99574.75;5038568;27;96896;-72
2021/01/23 07:31:38;;;;;;;3.50;1.70;;;2.80;96.60;;;7.42;77.19;99578.06;5045959;27;96935;-72
2021/01/23 07:34:12;;;;;;;0.75;0.70;;;2.90;96.60;;;7.42;76.55;99581.50;5035897;27;97712;-72
2021/01/23 07:36:46;;;;;;;2.05;1.38;;;2.80;96.60;;;7.40;76.62;99575.72;5031264;27;97288;-72
2021/01/23 07:39:15;;;;;;;3.50;3.10;;;2.90;96.60;;;7.44;76.94;99576.66;5048508;27;96800;-72
2021/01/23 07:41:50;;;;;;;1.80;1.33;;;2.90;96.60;;;7.48;76.93;99576.81;5040255;27;97946;-71
2021/01/23 07:44:20;;;;;;;2.80;2.42;;;2.90;96.60;;;7.53;76.50;99584.69;5039823;27;97173;-72
2021/01/23 07:46:51;;;;;;;;;;;3.00;96.70;;;7.57;76.33;99578.41;5047689;27;96799;-72
2021/01/23 07:49:25;;;;;;;0.60;0.60;;;3.00;96.60;;;7.61;76.91;99576.69;5042763;27;96844;-72
2021/01/23 07:52:10;;;;;;;0.88;0.88;;;3.00;96.60;;;7.64;76.47;99575.31;5038160;27;97782;-72
2021/01/23 07:54:53;;;;;;;1.67;1.58;;;3.00;96.60;;;7.64;76.55;99581.41;5042654;27;97880;-72
2021/01/23 07:57:21;;;;;;;1.75;1.05;;;3.00;96.60;;;7.66;76.53;99578.44;5048674;27;96760;-72
2021/01/23 07:59:50;;;;;;;1.50;1.40;;;3.00;96.60;;;7.64;76.79;99583.31;5032940;27;96651;-73
2021/01/23 08:02:18;;;;;;;2.30;1.25;;;3.10;96.70;;;7.65;77.26;99582.19;5054633;27;97867;-72
2021/01/23 08:04:49;;;;;;;7.32;1.85;;;3.10;96.70;;;7.71;76.63;99581.75;5057062;27;96789;-71
2021/01/23 08:07:29;;;;;;;4.03;2.00;;;3.10;96.70;;;7.72;77.36;99580.66;5048091;27;96850;-72
2021/01/23 08:10:14;;;;;;;1.33;1.23;;;3.20;96.70;;;7.73;77.48;99587.56;5044310;27;96791;-72
2021/01/23 08:12:57;;;;;;;5.53;3.13;;;3.20;96.70;;;7.76;76.82;99579.72;5042352;27;97971;-72
2021/01/23 08:15:40;;;;;;;4.85;3.35;;;3.20;96.70;;;7.85;76.77;99582.41;5041581;27;98004;-72
2021/01/23 08:18:18;;;;;;;4.97;3.22;;;3.30;96.70;;;7.85;76.59;99583.19;5055869;27;97393;-72
2021/01/23 08:20:47;;;;;;;11.95;2.63;;;3.30;96.70;;;7.84;77.31;99581.63;5040625;27;96839;-72
2021/01/23 08:23:18;;;;;;;5.80;1.83;;;3.30;96.70;;;7.96;76.84;99578.34;5045472;27;96612;-72
2021/01/23 08:25:51;;;;;;;1.20;1.10;;;3.30;96.70;;;7.97;76.93;99579.94;5042075;27;97373;-72
2021/01/23 08:28:37;;;;;;;1.77;1.15;;;3.40;96.70;;;8.05;76.48;99581.81;5048813;27;96861;-72
2021/01/23 08:31:13;;;;;;;1.75;1.65;;;3.40;96.70;;;8.07;76.58;99579.63;5047261;27;97197;-72
2021/01/23 08:33:43;;;;;;;2.13;1.63;;;3.40;96.70;;;8.06;77.08;99583.38;5039006;27;96920;-73
2021/01/23 08:36:11;;;;;;;2.85;1.13;;;3.50;96.80;;;8.09;76.97;99577.41;5043402;27;97190;-72
2021/01/23 08:38:40;;;;;;;2.17;1.98;;;3.50;96.80;;;8.11;76.94;99578.69;5048457;27;96788;-73
2021/01/23 08:41:07;;;;;;;6.78;2.75;;;3.60;96.80;;;8.10;77.48;99574.41;5039874;27;97355;-73
2021/01/23 08:43:35;;;;;;;3.30;2.55;;;3.60;96.80;;;8.17;77.12;99580.13;5039464;27;97943;-72
2021/01/23 08:46:03;;;;;;;1.52;1.42;;;3.60;96.80;;;8.22;77.36;99571.16;5031767;27;97698;-72
2021/01/23 08:48:31;;;;;;;3.90;2.38;;;3.60;96.80;;;8.22;77.06;99569.28;5039448;27;96781;-72
2021/01/23 08:51:03;;;;;;;1.65;0.98;;;3.70;96.80;;;8.32;77.06;99560.19;5040876;27;96650;-72
2021/01/23 08:53:31;;;;;;;0.90;0.80;;;3.70;96.80;;;8.40;76.92;99554.81;5040379;27;97463;-72
2021/01/23 08:55:59;;;;;;;1.50;1.40;;;3.80;96.80;;;8.47;76.69;99557.03;5041357;27;96775;-72
2021/01/23 08:58:30;;;;;;;3.70;2.53;;;3.80;96.80;;;8.37;77.07;99552.78;5045989;27;96701;-72
2021/01/23 09:00:58;;;;;;;16.77;2.00;;;3.80;96.80;;;8.47;77.00;99557.03;5041311;27;96946;-72
2021/01/23 09:03:25;;;;;;;4.88;1.83;;;3.90;96.70;;;8.51;76.79;99557.97;5039110;27;98198;-72
2021/01/23 09:05:53;;;;;;;3.22;2.63;;;3.90;96.70;;;8.57;76.68;99560.16;5042605;27;97060;-72
2021/01/23 09:08:21;;;;;;;5.28;2.65;;;3.90;96.70;;;8.62;76.89;99565.31;5042699;27;97209;-72
2021/01/23 09:10:48;;;;;;;2.78;1.85;;;4.00;96.70;;;8.64;77.03;99571.13;5044718;27;96902;-72
2021/01/23 09:13:17;;;;;;;1.92;1.58;;;4.00;96.70;;;8.71;76.95;99568.78;5050173;27;97911;-72
2021/01/23 09:15:45;;;;;;;2.17;1.52;;;4.10;96.70;;;8.66;77.04;99568.94;5047855;27;98028;-72
2021/01/23 09:18:12;;;;;;;2.05;1.05;;;4.10;96.70;;;8.70;77.08;99574.44;5043189;27;96786;-72
2021/01/23 09:20:40;;;;;;;1.48;1.38;;;4.10;96.60;;;8.87;76.75;99558.38;5040359;27;97522;-72
2021/01/23 09:23:08;;;;;;;1.52;0.75;;;4.20;96.60;;;9.09;76.18;99564.28;5047833;27;96855;-72
2021/01/23 09:25:36;;;;;;;4.75;2.60;;;4.30;96.60;;;9.15;75.96;99556.84;5038206;27;97776;-72
2021/01/23 09:28:04;;;;;;;6.22;3.00;;;4.40;96.60;;;9.29;75.78;99558.19;5040331;27;97451;-72
2021/01/23 09:30:33;;;;;;;3.88;1.55;;;4.50;96.50;;;9.35;75.60;99559.63;5035333;27;97489;-72
2021/01/23 09:33:05;;;;;;;1.10;1.02;;;4.60;96.50;;;9.36;75.84;99566.53;5035331;27;97043;-72
2021/01/23 09:35:33;;;;;;;3.03;2.25;;;4.60;96.40;;;9.49;75.83;99568.19;5038705;27;96742;-72
2021/01/23 09:38:03;;;;;;;0.50;0.50;;;4.70;96.40;;;9.76;74.98;99573.06;5045740;27;97179;-72
2021/01/23 09:40:31;;;;;;;1.58;1.35;;;4.80;96.30;;;10.05;74.17;99579.19;5032755;27;96998;-72
2021/01/23 09:42:59;;;;;;;6.65;3.63;;;5.00;96.30;;;10.20;73.64;99567.09;5042103;27;97168;-72
2021/01/23 09:45:28;;;;;;;1.48;1.38;;;5.10;96.20;;;10.36;73.88;99573.44;5052628;27;96803;-72
2021/01/23 09:47:57;;;;;;;3.90;1.95;;;5.30;96.10;;;10.34;73.91;99573.00;5021352;27;97253;-72
2021/01/23 09:50:42;;;;;;;6.03;3.25;;;5.30;95.90;;;10.29;74.18;99565.94;5037663;27;97188;-72
2021/01/23 09:53:10;;;;;;;1.70;1.60;;;5.40;95.80;;;10.56;74.03;99570.75;5038173;27;97213;-72
2021/01/23 09:55:38;;;;;;;1.48;1.13;;;5.50;95.80;;;10.93;72.75;99578.56;5034056;27;96843;-72
2021/01/23 09:58:06;;;;;;;3.35;1.48;;;5.70;95.80;;;11.06;72.45;99584.75;5038022;27;97808;-72
2021/01/23 10:00:33;;;;;;;12.50;2.17;;;5.90;95.60;;;10.72;73.41;99582.41;5040541;27;96919;-72
2021/01/23 10:03:04;;;;;;;2.50;1.70;;;5.90;95.40;;;10.47;74.38;99578.09;5023348;27;97839;-72
2021/01/23 10:05:33;;;;;;;2.15;1.92;;;5.90;95.30;;;10.31;75.74;99587.81;5037691;27;97292;-72
2021/01/23 10:08:02;;;;;;;1.70;1.10;;;5.80;95.30;;;10.21;75.63;99574.81;5037204;27;96749;-73
2021/01/23 10:10:31;;;;;;;3.85;1.73;;;5.70;95.30;;;10.31;75.54;99579.00;5042312;27;96839;-73
2021/01/23 10:13:00;;;;;;;1.30;1.20;;;5.70;95.40;;;10.47;75.35;99575.41;5041243;27;98056;-72
2021/01/23 10:15:33;;;;;;;1.20;1.10;;;5.70;95.50;;;10.61;74.92;99583.16;5042698;27;96932;-72
2021/01/23 10:18:03;;;;;;;0.68;0.68;;;5.80;95.50;;;10.87;74.60;99576.41;5038736;27;96821;-72
2021/01/23 10:20:32;;;;;;;4.38;1.73;;;5.90;95.50;;;11.06;73.88;99584.75;5034144;27;96966;-72
2021/01/23 10:22:59;;;;;;;2.42;1.08;;;6.00;95.40;;;11.16;73.58;99581.63;5036948;27;97878;-73
2021/01/23 10:25:30;;;;;;;9.75;3.40;;;6.20;95.40;;;11.30;73.52;99582.88;5036311;27;98571;-72
2021/01/23 10:27:57;;;;;;;3.00;1.98;;;6.20;95.30;;;11.29;73.53;99578.63;5035266;27;96991;-72
2021/01/23 10:30:26;;;;;;;1.63;1.52;;;6.30;95.20;;;11.30;73.60;99584.78;5044295;27;97158;-73
2021/01/23 10:32:53;;;;;;;17.30;3.60;;;6.30;95.10;;;11.37;73.02;99561.63;5053130;27;97846;-73
2021/01/23 10:35:22;;;;;;;6.97;2.55;;;6.30;95.10;;;11.61;72.88;99567.03;5038311;27;97786;-73
2021/01/23 10:37:50;;;;;;;5.82;1.95;;;6.40;95.10;;;11.46;72.59;99567.69;5038097;27;96811;-73
2021/01/23 10:40:18;;;;;;;1.23;1.13;;;6.50;95.00;;;11.42;73.31;99571.38;5051320;27;97747;-73
2021/01/23 10:42:46;;;;;;;1.58;1.35;;;6.50;95.00;;;11.22;73.65;99575.72;5036722;27;97912;-73
2021/01/23 10:45:13;;;;;;;1.20;1.17;;;6.50;95.00;;;11.14;73.93;99571.25;5036295;27;97823;-73
2021/01/23 10:47:41;;;;;;;2.75;2.08;;;6.40;94.90;;;10.99;74.27;99568.44;5034879;27;97241;-73
2021/01/23 10:50:11;;;;;;;4.47;2.70;;;6.40;94.90;;;10.78;75.60;99569.59;5046165;27;96812;-73
2021/01/23 10:52:39;;;;;;;0.35;0.35;;;6.30;95.00;;;10.86;75.01;99576.78;5046840;27;97105;-73